createdAt,value
2022-08-26T00:02:20.717Z,5.18
2022-08-26T00:04:50.992Z,5.25
2022-08-26T00:07:20.709Z,4.90
2022-08-26T00:09:54.498Z,5.10
2022-08-26T00:12:27.895Z,5.15
2022-08-26T00:15:08.139Z,5.30
2022-08-26T00:17:40.394Z,5.03
2022-08-26T00:20:12.575Z,5.10
2022-08-26T00:25:17.969Z,5.45
2022-08-26T00:27:48.205Z,5.28
2022-08-26T00:30:22.910Z,5.30
2022-08-26T00:32:54.209Z,5.43
2022-08-26T00:35:25.263Z,5.32
2022-08-26T00:37:57.778Z,5.50
2022-08-26T00:40:32.540Z,5.10
2022-08-26T00:43:02.990Z,5.47
2022-08-26T00:45:45.177Z,5.60
2022-08-26T00:48:17.137Z,5.70
2022-08-26T00:50:53.143Z,5.13
2022-08-26T00:53:26.392Z,5.32
2022-08-26T00:56:03.716Z,5.28
2022-08-26T00:58:35.106Z,5.07
2022-08-26T01:01:05.220Z,5.20
2022-08-26T01:03:36.726Z,5.32
2022-08-26T01:06:12.497Z,5.60
2022-08-26T01:08:43.182Z,5.70
2022-08-26T01:11:16.288Z,5.32
2022-08-26T01:13:47.489Z,5.45
2022-08-26T01:16:18.661Z,5.60
2022-08-26T01:18:50.564Z,5.43
2022-08-26T01:21:26.170Z,5.50
2022-08-26T01:23:59.389Z,5.80
2022-08-26T01:26:31.261Z,5.53
2022-08-26T01:29:03.509Z,6.45
2022-08-26T01:31:39.079Z,6.20
2022-08-26T01:34:11.299Z,6.35
2022-08-26T01:36:41.346Z,6.13
2022-08-26T01:39:14.482Z,6.50
2022-08-26T01:41:44.291Z,7.35
2022-08-26T01:44:21.853Z,6.97
2022-08-26T01:46:52.956Z,8.00
2022-08-26T01:49:23.973Z,8.18
2022-08-26T01:51:58.359Z,7.45
2022-08-26T01:54:30.882Z,7.78
2022-08-26T01:57:00.539Z,8.25
2022-08-26T01:59:32.594Z,8.20
2022-08-26T02:02:02.514Z,8.63
2022-08-26T02:04:35.189Z,7.80
2022-08-26T02:07:07.340Z,7.40
2022-08-26T02:09:41.213Z,8.80
2022-08-26T02:12:12.183Z,7.97
2022-08-26T02:14:44.561Z,8.02
2022-08-26T02:17:15.349Z,8.75
2022-08-26T02:19:51.961Z,8.75
2022-08-26T02:22:24.697Z,9.75
2022-08-26T02:24:59.222Z,8.63
2022-08-26T02:27:32.836Z,9.80
2022-08-26T02:32:35.095Z,10.57
2022-08-26T02:35:05.150Z,10.20
2022-08-26T02:37:35.557Z,11.15
2022-08-26T02:40:10.239Z,10.15
2022-08-26T02:42:40.170Z,10.95
2022-08-26T02:45:13.368Z,10.02
2022-08-26T02:47:46.801Z,12.02
2022-08-26T02:50:16.680Z,11.52
2022-08-26T02:52:46.411Z,13.38
2022-08-26T02:55:19.668Z,12.10
2022-08-26T02:57:49.691Z,10.05
2022-08-26T03:00:19.933Z,10.88
2022-08-26T03:02:50.309Z,10.50
2022-08-26T03:05:22.137Z,11.82
2022-08-26T03:07:53.990Z,10.73
2022-08-26T03:10:26.556Z,10.95
2022-08-26T03:12:56.934Z,11.70
2022-08-26T03:15:27.771Z,11.35
2022-08-26T03:17:58.654Z,12.32
2022-08-26T03:20:29.095Z,10.77
2022-08-26T03:22:58.775Z,12.85
2022-08-26T03:25:31.301Z,10.77
2022-08-26T03:28:01.124Z,11.00
2022-08-26T03:30:45.039Z,12.50
2022-08-26T03:33:16.322Z,12.00
2022-08-26T03:35:47.881Z,12.68
2022-08-26T03:38:21.517Z,13.40
2022-08-26T03:40:56.318Z,11.48
2022-08-26T03:43:27.631Z,11.75
2022-08-26T03:45:57.314Z,11.40
2022-08-26T03:48:27.282Z,10.95
2022-08-26T03:50:56.981Z,12.45
2022-08-26T03:53:27.218Z,12.13
2022-08-26T03:56:00.216Z,10.23
2022-08-26T03:58:31.076Z,10.95
2022-08-26T04:01:00.972Z,11.18
2022-08-26T04:03:43.392Z,11.73
2022-08-26T04:06:13.333Z,13.52
2022-08-26T04:08:43.401Z,11.85
2022-08-26T04:11:19.586Z,12.52
2022-08-26T04:13:50.117Z,11.95
2022-08-26T04:16:21.117Z,13.35
2022-08-26T04:18:52.728Z,10.98
2022-08-26T04:21:22.677Z,11.95
2022-08-26T04:23:52.941Z,12.40
2022-08-26T04:26:26.130Z,11.90
2022-08-26T04:28:57.042Z,12.90
2022-08-26T04:31:26.760Z,13.25
2022-08-26T04:34:00.623Z,16.25
2022-08-26T04:36:30.324Z,14.60
2022-08-26T04:39:00.278Z,15.48
2022-08-26T04:41:33.116Z,14.65
2022-08-26T04:44:02.828Z,16.08
2022-08-26T04:46:32.899Z,13.32
2022-08-26T04:49:02.633Z,16.20
2022-08-26T04:51:33.402Z,15.38
2022-08-26T04:54:03.195Z,17.08
2022-08-26T04:56:40.418Z,16.05
2022-08-26T04:59:16.691Z,17.23
2022-08-26T05:01:48.890Z,18.85
2022-08-26T05:04:20.134Z,16.60
2022-08-26T05:06:49.921Z,17.67
2022-08-26T05:09:20.175Z,16.52
2022-08-26T05:11:52.592Z,16.98
2022-08-26T05:14:23.261Z,16.38
2022-08-26T05:16:54.037Z,21.45
2022-08-26T05:19:23.946Z,19.48
2022-08-26T05:21:54.239Z,26.77
2022-08-26T05:24:24.731Z,28.35
2022-08-26T05:26:57.293Z,27.10
2022-08-26T05:29:26.890Z,28.15
2022-08-26T05:31:56.503Z,27.95
2022-08-26T05:34:30.107Z,28.05
2022-08-26T05:37:00.378Z,26.90
2022-08-26T05:39:30.006Z,28.73
2022-08-26T05:42:04.137Z,27.92
2022-08-26T05:44:53.632Z,27.80
2022-08-26T05:47:23.367Z,26.70
2022-08-26T05:49:53.041Z,27.23
2022-08-26T05:52:25.878Z,26.70
2022-08-26T05:54:55.646Z,27.23
2022-08-26T05:57:27.895Z,28.98
2022-08-26T05:59:58.055Z,25.30
2022-08-26T06:02:28.524Z,24.98
2022-08-26T06:04:58.220Z,24.85
2022-08-26T06:07:47.869Z,25.70
2022-08-26T06:10:33.476Z,23.63
2022-08-26T06:13:11.549Z,24.27
2022-08-26T06:15:45.595Z,23.75
2022-08-26T06:18:16.855Z,23.17
2022-08-26T06:20:56.913Z,24.70
2022-08-26T06:23:40.510Z,25.67
2022-08-26T06:26:11.032Z,25.27
2022-08-26T06:28:45.537Z,24.20
2022-08-26T06:31:15.926Z,22.63
2022-08-26T06:33:46.253Z,22.60
2022-08-26T06:36:20.579Z,23.63
2022-08-26T06:38:51.349Z,22.85
2022-08-26T06:41:22.767Z,23.33
2022-08-26T06:43:55.091Z,22.83
2022-08-26T06:46:26.053Z,23.63
2022-08-26T06:48:58.187Z,24.42
2022-08-26T06:51:29.718Z,24.85
2022-08-26T06:54:02.016Z,24.58
2022-08-26T06:56:36.113Z,24.92
2022-08-26T06:59:08.970Z,25.75
2022-08-26T07:01:43.033Z,25.73
2022-08-26T07:04:15.536Z,24.25
2022-08-26T07:06:48.892Z,24.23
2022-08-26T07:09:19.520Z,26.88
2022-08-26T07:11:49.278Z,27.80
2022-08-26T07:14:22.090Z,27.20
2022-08-26T07:16:52.379Z,28.20
2022-08-26T07:19:31.210Z,25.83
2022-08-26T07:22:02.392Z,26.25
2022-08-26T07:24:35.144Z,24.25
2022-08-26T07:27:06.595Z,24.23
2022-08-26T07:29:39.710Z,25.25
2022-08-26T07:32:09.852Z,25.65
2022-08-26T07:34:40.172Z,24.85
2022-08-26T07:37:11.685Z,27.83
2022-08-26T07:39:43.240Z,27.33
2022-08-26T07:42:15.713Z,26.80
2022-08-26T07:44:50.751Z,28.15
2022-08-26T07:47:25.716Z,31.17
2022-08-26T07:49:57.413Z,30.40
2022-08-26T07:52:28.088Z,29.20
2022-08-26T07:54:58.455Z,27.45
2022-08-26T07:57:28.351Z,27.00
2022-08-26T08:00:00.693Z,26.88
2022-08-26T08:02:31.685Z,27.45
2022-08-26T08:05:01.799Z,25.15
2022-08-26T08:07:45.092Z,23.80
2022-08-26T08:10:17.040Z,22.35
2022-08-26T08:12:47.031Z,22.13
2022-08-26T08:15:21.847Z,20.75
2022-08-26T08:17:51.668Z,20.00
2022-08-26T08:20:23.023Z,19.75
2022-08-26T08:22:53.028Z,17.92
2022-08-26T08:25:24.166Z,18.05
2022-08-26T08:27:53.907Z,18.35
2022-08-26T08:30:26.622Z,22.95
2022-08-26T08:32:56.821Z,22.30
2022-08-26T08:35:27.561Z,22.70
2022-08-26T08:37:57.317Z,23.25
2022-08-26T08:40:29.177Z,24.17
2022-08-26T08:43:02.042Z,23.52
2022-08-26T08:45:37.110Z,27.90
2022-08-26T08:48:09.117Z,30.35
2022-08-26T08:50:45.855Z,31.75
2022-08-26T08:53:18.161Z,29.85
2022-08-26T08:55:54.742Z,32.47
2022-08-26T08:58:28.310Z,31.45
2022-08-26T09:01:04.718Z,33.85
2022-08-26T09:03:50.227Z,33.67
2022-08-26T09:06:20.546Z,35.17
2022-08-26T09:08:52.024Z,36.75
2022-08-26T09:11:23.181Z,39.40
2022-08-26T09:13:54.512Z,43.20
2022-08-26T09:16:31.286Z,43.92
2022-08-26T09:19:14.594Z,44.80
2022-08-26T09:21:53.342Z,46.85
2022-08-26T09:24:23.154Z,48.13
2022-08-26T09:26:59.243Z,47.03
2022-08-26T09:29:30.894Z,47.00
2022-08-26T09:35:01.369Z,42.80
2022-08-26T09:37:40.275Z,38.55
2022-08-26T09:40:22.481Z,37.83
2022-08-26T09:43:09.827Z,37.53
2022-08-26T09:45:41.448Z,35.55
2022-08-26T09:48:32.661Z,39.63
2022-08-26T09:51:09.831Z,38.20
2022-08-26T09:53:53.968Z,34.80
2022-08-26T09:56:28.554Z,34.63
2022-08-26T09:58:59.333Z,33.05
2022-08-26T10:01:33.452Z,30.27
2022-08-26T10:04:10.990Z,28.17
2022-08-26T10:06:46.561Z,27.08
2022-08-26T10:09:19.542Z,23.80
2022-08-26T10:11:52.007Z,21.08
2022-08-26T10:14:25.491Z,20.10
2022-08-26T10:16:58.068Z,19.73
2022-08-26T10:19:55.577Z,22.50
2022-08-26T10:22:26.970Z,23.45
2022-08-26T10:25:00.514Z,23.52
2022-08-26T10:27:37.558Z,19.65
2022-08-26T10:30:13.997Z,18.40
2022-08-26T10:32:48.121Z,17.73
2022-08-26T10:35:19.726Z,16.98
2022-08-26T10:37:56.466Z,13.02
2022-08-26T10:40:28.958Z,11.60
2022-08-26T10:43:02.003Z,11.65
2022-08-26T10:45:41.255Z,10.25
2022-08-26T10:48:14.921Z,11.27
2022-08-26T10:50:47.572Z,11.80
2022-08-26T10:53:24.941Z,12.07
2022-08-26T10:56:00.164Z,12.73
2022-08-26T10:58:44.599Z,16.77
2022-08-26T11:04:06.498Z,17.63
2022-08-26T11:06:37.169Z,17.52
2022-08-26T11:09:11.454Z,19.55
2022-08-26T11:11:48.253Z,19.95
2022-08-26T11:14:41.120Z,18.95
2022-08-26T11:17:53.331Z,18.63
2022-08-26T11:20:35.588Z,17.08
2022-08-26T11:23:37.614Z,16.00
2022-08-26T11:26:37.867Z,15.93
2022-08-26T11:29:13.907Z,14.63
2022-08-26T11:31:58.537Z,12.48
2022-08-26T11:34:55.042Z,12.43
2022-08-26T11:37:32.506Z,13.55
2022-08-26T11:40:04.141Z,11.55
2022-08-26T11:42:40.611Z,10.85
2022-08-26T11:45:20.877Z,9.13
2022-08-26T11:47:50.561Z,9.15
2022-08-26T11:50:23.410Z,10.15
2022-08-26T11:53:01.790Z,12.05
2022-08-26T11:55:32.692Z,14.63
2022-08-26T11:58:07.670Z,14.90
2022-08-26T12:00:53.213Z,19.88
2022-08-26T12:03:25.610Z,26.02
2022-08-26T12:05:57.336Z,22.90
2022-08-26T12:08:31.190Z,24.02
2022-08-26T12:11:06.996Z,25.15
2022-08-26T12:13:39.536Z,25.80
2022-08-26T12:16:09.746Z,25.13
2022-08-26T12:18:41.634Z,24.60
2022-08-26T12:21:16.844Z,22.73
2022-08-26T12:23:50.092Z,22.75
2022-08-26T12:26:25.743Z,22.30
2022-08-26T12:29:00.900Z,22.67
2022-08-26T12:31:33.953Z,21.42
2022-08-26T12:34:06.439Z,20.17
2022-08-26T12:36:49.649Z,20.05
2022-08-26T12:39:30.453Z,18.95
2022-08-26T12:42:01.293Z,14.25
2022-08-26T12:44:38.964Z,13.00
2022-08-26T12:47:11.980Z,13.20
2022-08-26T12:49:43.040Z,12.32
2022-08-26T12:52:30.067Z,11.35
2022-08-26T12:55:02.917Z,10.50
2022-08-26T12:57:35.217Z,10.63
2022-08-26T13:00:35.465Z,9.20
2022-08-26T13:03:05.426Z,9.60
2022-08-26T13:05:37.972Z,9.57
2022-08-26T13:08:18.690Z,9.80
2022-08-26T13:10:49.980Z,9.38
2022-08-26T13:13:19.671Z,9.93
2022-08-26T13:15:52.531Z,8.32
2022-08-26T13:18:22.200Z,8.02
2022-08-26T13:20:51.852Z,6.97
2022-08-26T13:23:22.039Z,6.60
2022-08-26T13:25:51.932Z,5.95
2022-08-26T13:28:21.935Z,5.93
2022-08-26T13:30:54.212Z,5.50
2022-08-26T13:33:23.909Z,5.65
2022-08-26T13:35:54.835Z,5.47
2022-08-26T13:38:33.752Z,5.80
2022-08-26T13:41:04.811Z,4.80
2022-08-26T13:43:35.666Z,5.28
2022-08-26T13:46:08.426Z,5.30
2022-08-26T13:48:38.277Z,5.10
2022-08-26T13:51:10.823Z,5.33
2022-08-26T13:53:41.546Z,5.25
2022-08-26T13:56:11.768Z,5.13
2022-08-26T13:58:41.458Z,4.75
2022-08-26T14:01:13.931Z,5.30
2022-08-26T14:03:43.948Z,4.60
2022-08-26T14:06:13.728Z,4.70
2022-08-26T14:08:44.126Z,4.38
2022-08-26T14:11:14.160Z,4.78
2022-08-26T14:13:43.829Z,4.43
2022-08-26T14:16:23.807Z,4.03
2022-08-26T14:18:53.452Z,5.50
2022-08-26T14:21:23.327Z,4.50
2022-08-26T14:23:52.965Z,4.43
2022-08-26T14:26:29.102Z,4.30
2022-08-26T14:28:59.795Z,4.65
2022-08-26T14:31:33.080Z,3.90
2022-08-26T14:34:04.641Z,4.10
2022-08-26T14:36:35.276Z,3.30
2022-08-26T14:39:07.043Z,3.55
2022-08-26T14:41:54.610Z,3.75
2022-08-26T14:44:26.512Z,3.35
2022-08-26T14:46:59.399Z,4.22
2022-08-26T14:49:31.211Z,4.35
2022-08-26T14:52:01.279Z,3.17
2022-08-26T14:54:29.519Z,3.05
2022-08-26T14:57:01.051Z,4.32
2022-08-26T14:59:32.279Z,4.22
2022-08-26T15:02:04.664Z,3.35
2022-08-26T15:04:34.716Z,3.03
2022-08-26T15:07:04.746Z,3.22
2022-08-26T15:09:37.394Z,2.88
2022-08-26T15:12:07.995Z,2.83
2022-08-26T15:14:37.654Z,2.97
2022-08-26T15:17:10.086Z,3.00
2022-08-26T15:19:39.749Z,2.80
2022-08-26T15:22:09.377Z,2.97
2022-08-26T15:24:39.096Z,2.92
2022-08-26T15:27:09.083Z,3.08
2022-08-26T15:29:39.080Z,3.00
2022-08-26T15:32:11.377Z,3.30
2022-08-26T15:34:41.027Z,3.35
2022-08-26T15:37:10.865Z,3.15
2022-08-26T15:39:41.054Z,3.53
2022-08-26T15:42:11.110Z,3.30
2022-08-26T15:44:40.752Z,3.47
2022-08-26T15:47:13.241Z,3.47
2022-08-26T15:49:42.891Z,4.72
2022-08-26T15:52:12.528Z,5.03
2022-08-26T15:54:42.292Z,4.72
2022-08-26T15:57:15.362Z,5.13
2022-08-26T15:59:46.281Z,5.07
2022-08-26T16:02:18.674Z,5.03
2022-08-26T16:04:48.304Z,5.03
2022-08-26T16:07:17.975Z,4.90
2022-08-26T16:09:49.056Z,5.70
2022-08-26T16:12:24.150Z,5.68
2022-08-26T16:14:54.070Z,6.40
2022-08-26T16:17:26.355Z,5.82
2022-08-26T16:19:56.278Z,5.22
2022-08-26T16:22:27.239Z,5.60
2022-08-26T16:24:59.628Z,5.75
2022-08-26T16:27:29.300Z,4.40
2022-08-26T16:29:58.931Z,4.00
2022-08-26T16:32:31.427Z,4.35
2022-08-26T16:35:01.585Z,3.72
2022-08-26T16:37:31.186Z,3.67
2022-08-26T16:40:00.906Z,3.90
2022-08-26T16:42:30.601Z,3.92
2022-08-26T16:45:00.268Z,3.40
2022-08-26T16:47:33.016Z,3.45
2022-08-26T16:50:02.949Z,3.22
2022-08-26T16:52:32.647Z,3.80
2022-08-26T16:55:02.522Z,3.35
2022-08-26T16:57:32.138Z,3.60
2022-08-26T17:00:01.828Z,3.13
2022-08-26T17:02:34.201Z,3.40
2022-08-26T17:05:03.860Z,4.00
2022-08-26T17:07:35.474Z,3.60
2022-08-26T17:10:05.138Z,3.50
2022-08-26T17:12:34.737Z,3.78
2022-08-26T17:15:04.570Z,3.90
2022-08-26T17:17:37.302Z,3.80
2022-08-26T17:20:12.645Z,3.60
2022-08-26T17:22:43.809Z,3.70
2022-08-26T17:25:15.025Z,4.13
2022-08-26T17:27:45.745Z,3.95
2022-08-26T17:30:17.260Z,4.30
2022-08-26T17:32:50.130Z,3.60
2022-08-26T17:35:19.777Z,3.90
2022-08-26T17:37:49.404Z,3.53
2022-08-26T17:40:25.212Z,3.75
2022-08-26T17:42:54.910Z,3.90
2022-08-26T17:45:24.934Z,3.58
2022-08-26T17:47:57.637Z,3.60
2022-08-26T17:50:27.261Z,3.60
2022-08-26T17:52:58.261Z,3.40
2022-08-26T17:55:28.058Z,3.50
2022-08-26T17:57:57.880Z,3.58
2022-08-26T18:00:29.205Z,3.45
2022-08-26T18:03:01.479Z,3.60
2022-08-26T18:05:31.272Z,3.35
2022-08-26T18:08:01.010Z,3.33
2022-08-26T18:10:31.422Z,3.38
2022-08-26T18:13:01.369Z,3.50
2022-08-26T18:15:31.096Z,3.38
2022-08-26T18:18:03.325Z,3.50
2022-08-26T18:20:32.945Z,3.40
2022-08-26T18:23:02.552Z,3.28
2022-08-26T18:25:32.197Z,3.55
2022-08-26T18:28:01.902Z,3.63
2022-08-26T18:30:31.569Z,3.28
2022-08-26T18:33:04.425Z,3.22
2022-08-26T18:35:34.112Z,3.42
2022-08-26T18:38:11.322Z,3.20
2022-08-26T18:40:42.280Z,3.20
2022-08-26T18:43:12.297Z,3.80
2022-08-26T18:45:41.972Z,3.10
2022-08-26T18:48:14.718Z,3.45
2022-08-26T18:50:47.330Z,3.05
2022-08-26T18:53:17.628Z,3.80
2022-08-26T18:55:47.294Z,3.30
2022-08-26T18:58:16.924Z,2.80
2022-08-26T19:00:46.557Z,3.42
2022-08-26T19:03:19.271Z,3.42
2022-08-26T19:05:49.102Z,3.60
2022-08-26T19:08:18.736Z,2.90
2022-08-26T19:10:48.449Z,2.97
2022-08-26T19:13:18.233Z,3.75
2022-08-26T19:15:48.474Z,2.88
2022-08-26T19:18:20.726Z,3.10
2022-08-26T19:20:50.598Z,3.30
2022-08-26T19:23:31.459Z,3.05
2022-08-26T19:26:02.099Z,3.00
2022-08-26T19:28:31.775Z,3.15
2022-08-26T19:31:01.691Z,3.13
2022-08-26T19:33:33.928Z,3.20
2022-08-26T19:36:06.318Z,3.40
2022-08-26T19:38:36.612Z,3.22
2022-08-26T19:41:06.368Z,3.10
2022-08-26T19:43:35.992Z,2.70
2022-08-26T19:46:12.837Z,3.40
2022-08-26T19:48:45.822Z,3.65
2022-08-26T19:51:16.363Z,3.27
2022-08-26T19:53:46.361Z,3.50
2022-08-26T19:56:16.536Z,3.17
2022-08-26T19:58:46.830Z,3.00
2022-08-26T20:01:17.940Z,3.33
2022-08-26T20:03:50.640Z,5.32
2022-08-26T20:06:21.209Z,3.55
2022-08-26T20:08:52.128Z,3.72
2022-08-26T20:11:26.046Z,3.03
2022-08-26T20:13:57.168Z,2.90
2022-08-26T20:16:26.816Z,3.10
2022-08-26T20:19:11.589Z,3.13
2022-08-26T20:21:43.150Z,3.38
2022-08-26T20:24:14.606Z,3.20
2022-08-26T20:26:46.393Z,3.10
2022-08-26T20:29:18.265Z,3.42
2022-08-26T20:31:48.150Z,3.10
2022-08-26T20:34:21.207Z,2.83
2022-08-26T20:36:52.244Z,3.35
2022-08-26T20:39:23.604Z,3.50
2022-08-26T20:41:53.302Z,3.40
2022-08-26T20:44:22.909Z,3.50
2022-08-26T20:46:52.549Z,3.25
2022-08-26T20:49:25.010Z,2.92
2022-08-26T20:51:54.756Z,3.50
2022-08-26T20:54:28.526Z,3.60
2022-08-26T20:59:28.708Z,3.45
2022-08-26T21:01:58.313Z,3.40
2022-08-26T21:04:30.623Z,3.55
2022-08-26T21:07:00.275Z,3.35
2022-08-26T21:09:30.279Z,3.20
2022-08-26T21:12:00.352Z,3.83
2022-08-26T21:14:29.943Z,3.65
2022-08-26T21:16:59.605Z,4.15
2022-08-26T21:19:31.860Z,4.18
2022-08-26T21:22:01.709Z,4.55
2022-08-26T21:24:31.385Z,4.53
2022-08-26T21:27:01.109Z,3.70
2022-08-26T21:29:30.730Z,3.55
2022-08-26T21:32:00.381Z,3.35
2022-08-26T21:34:32.625Z,3.40
2022-08-26T21:37:02.224Z,3.55
2022-08-26T21:39:38.570Z,3.17
2022-08-26T21:42:09.654Z,3.30
2022-08-26T21:44:39.276Z,3.30
2022-08-26T21:47:09.389Z,3.63
2022-08-26T21:49:44.123Z,3.17
2022-08-26T21:52:14.302Z,3.47
2022-08-26T21:54:49.313Z,3.72
2022-08-26T21:57:19.700Z,3.67
2022-08-26T21:59:49.292Z,3.58
2022-08-26T22:02:19.053Z,3.72
2022-08-26T22:04:51.597Z,3.70
2022-08-26T22:07:21.854Z,4.10
2022-08-26T22:09:51.500Z,3.95
2022-08-26T22:12:21.138Z,4.00
2022-08-26T22:14:50.748Z,4.13
2022-08-26T22:17:22.570Z,3.92
2022-08-26T22:19:55.172Z,4.45
2022-08-26T22:22:28.611Z,4.50
2022-08-26T22:24:58.222Z,5.10
2022-08-26T22:27:28.147Z,4.70
2022-08-26T22:29:57.856Z,4.88
2022-08-26T22:32:27.493Z,4.47
2022-08-26T22:34:59.697Z,5.30
2022-08-26T22:37:29.450Z,4.30
2022-08-26T22:39:59.193Z,4.50
2022-08-26T22:42:28.993Z,4.40
2022-08-26T22:44:58.638Z,4.57
2022-08-26T22:47:28.374Z,4.47
2022-08-26T22:50:01.609Z,4.75
2022-08-26T22:52:31.301Z,4.35
2022-08-26T22:55:00.927Z,5.43
2022-08-26T22:57:30.669Z,4.30
2022-08-26T23:00:00.565Z,4.13
2022-08-26T23:02:30.270Z,4.20
2022-08-26T23:05:02.505Z,4.60
2022-08-26T23:07:32.116Z,4.50
2022-08-26T23:10:01.625Z,5.10
2022-08-26T23:12:31.446Z,4.82
2022-08-26T23:15:01.300Z,5.38
2022-08-26T23:17:30.869Z,5.63
2022-08-26T23:20:02.998Z,5.30
2022-08-26T23:22:32.530Z,5.28
2022-08-26T23:25:04.534Z,5.22
2022-08-26T23:27:38.159Z,5.38
2022-08-26T23:30:08.709Z,5.22
2022-08-26T23:32:38.309Z,6.15
2022-08-26T23:35:09.508Z,6.13
2022-08-26T23:37:41.753Z,5.93
2022-08-26T23:40:14.539Z,6.38
2022-08-26T23:42:44.136Z,6.07
2022-08-26T23:45:18.377Z,5.85
2022-08-26T23:47:48.463Z,5.15
2022-08-26T23:50:21.067Z,5.80
2022-08-26T23:53:06.202Z,5.68
2022-08-26T23:55:36.472Z,5.38
2022-08-26T23:58:06.152Z,6.10
